createdAt,value
2022-08-26T00:00:48.811Z,76.29
2022-08-26T00:01:48.920Z,76.43
2022-08-26T00:02:48.858Z,76.32
2022-08-26T00:03:48.855Z,76.43
2022-08-26T00:04:48.805Z,76.73
2022-08-26T00:05:48.849Z,76.03
2022-08-26T00:06:48.777Z,75.92
2022-08-26T00:07:48.761Z,76.43
2022-08-26T00:08:48.827Z,76.83
2022-08-26T00:09:48.733Z,76.36
2022-08-26T00:10:48.742Z,77.70
2022-08-26T00:11:48.697Z,79.05
2022-08-26T00:12:48.804Z,78.55
2022-08-26T00:13:49.457Z,78.21
2022-08-26T00:14:48.674Z,78.01
2022-08-26T00:15:48.705Z,77.91
2022-08-26T00:16:49.050Z,77.61
2022-08-26T00:17:49.636Z,77.50
2022-08-26T00:18:48.655Z,78.31
2022-08-26T00:19:48.712Z,78.51
2022-08-26T00:20:48.821Z,78.61
2022-08-26T00:21:49.624Z,78.21
2022-08-26T00:22:48.609Z,77.31
2022-08-26T00:23:48.568Z,78.45
2022-08-26T00:24:48.634Z,78.51
2022-08-26T00:25:48.529Z,78.01
2022-08-26T00:26:48.661Z,78.11
2022-08-26T00:27:48.549Z,78.21
2022-08-26T00:28:48.593Z,78.11
2022-08-26T00:29:48.519Z,77.40
2022-08-26T00:30:48.536Z,76.60
2022-08-26T00:31:48.641Z,77.40
2022-08-26T00:32:48.474Z,77.20
2022-08-26T00:33:48.501Z,78.01
2022-08-26T00:34:48.485Z,78.51
2022-08-26T00:35:48.472Z,78.01
2022-08-26T00:36:51.725Z,77.31
2022-08-26T00:37:48.432Z,77.70
2022-08-26T00:38:48.560Z,77.91
2022-08-26T00:39:48.506Z,77.17
2022-08-26T00:40:48.450Z,77.50
2022-08-26T00:41:48.413Z,77.37
2022-08-26T00:42:48.387Z,77.47
2022-08-26T00:43:48.425Z,77.77
2022-08-26T00:44:48.420Z,77.97
2022-08-26T00:45:49.396Z,77.67
2022-08-26T00:46:48.358Z,76.97
2022-08-26T00:47:48.365Z,76.83
2022-08-26T00:48:49.246Z,76.46
2022-08-26T00:49:48.491Z,77.17
2022-08-26T00:50:48.340Z,77.11
2022-08-26T00:51:48.377Z,78.21
2022-08-26T00:52:49.342Z,78.15
2022-08-26T00:53:48.306Z,78.99
2022-08-26T00:54:48.828Z,80.60
2022-08-26T00:55:48.329Z,81.01
2022-08-26T00:56:48.626Z,81.55
2022-08-26T00:57:48.229Z,82.19
2022-08-26T00:58:48.277Z,82.39
2022-08-26T00:59:48.281Z,82.29
2022-08-26T01:00:48.304Z,83.20
2022-08-26T01:01:48.277Z,82.53
2022-08-26T01:02:48.323Z,82.53
2022-08-26T01:03:48.196Z,82.73
2022-08-26T01:04:48.198Z,82.93
2022-08-26T01:05:49.201Z,82.84
2022-08-26T01:06:48.156Z,83.78
2022-08-26T01:07:48.932Z,83.95
2022-08-26T01:08:48.175Z,84.65
2022-08-26T01:09:48.465Z,83.95
2022-08-26T01:10:48.259Z,83.95
2022-08-26T01:11:48.190Z,84.25
2022-08-26T01:12:48.103Z,84.65
2022-08-26T01:13:48.170Z,84.05
2022-08-26T01:14:48.088Z,84.41
2022-08-26T01:15:48.079Z,84.01
2022-08-26T01:16:48.308Z,83.80
2022-08-26T01:17:48.060Z,83.70
2022-08-26T01:18:48.071Z,83.10
2022-08-26T01:19:48.045Z,83.56
2022-08-26T01:20:50.700Z,83.10
2022-08-26T01:21:48.029Z,82.79
2022-08-26T01:22:48.000Z,83.00
2022-08-26T01:23:48.841Z,82.90
2022-08-26T01:24:48.033Z,83.91
2022-08-26T01:25:47.980Z,82.29
2022-08-26T01:26:47.936Z,82.79
2022-08-26T01:27:49.209Z,82.84
2022-08-26T01:28:50.671Z,83.24
2022-08-26T01:29:48.030Z,82.98
2022-08-26T01:30:48.000Z,83.88
2022-08-26T01:31:48.426Z,83.98
2022-08-26T01:32:47.907Z,83.88
2022-08-26T01:33:47.921Z,85.90
2022-08-26T01:34:47.929Z,86.67
2022-08-26T01:35:47.917Z,86.16
2022-08-26T01:36:51.177Z,84.85
2022-08-26T01:37:47.845Z,84.15
2022-08-26T01:38:47.804Z,84.55
2022-08-26T01:39:48.095Z,83.64
2022-08-26T01:40:48.039Z,83.24
2022-08-26T01:41:47.862Z,83.20
2022-08-26T01:42:48.817Z,82.79
2022-08-26T01:43:47.778Z,82.50
2022-08-26T01:44:47.825Z,82.39
2022-08-26T01:45:47.826Z,82.09
2022-08-26T01:46:47.898Z,82.29
2022-08-26T01:47:47.730Z,82.15
2022-08-26T01:48:47.771Z,81.95
2022-08-26T01:49:47.757Z,81.95
2022-08-26T01:50:47.725Z,81.75
2022-08-26T01:51:47.731Z,80.60
2022-08-26T01:52:50.014Z,81.21
2022-08-26T01:53:48.719Z,80.50
2022-08-26T01:54:50.550Z,80.26
2022-08-26T01:55:47.717Z,79.76
2022-08-26T01:56:47.681Z,79.69
2022-08-26T01:57:47.661Z,79.66
2022-08-26T01:58:47.624Z,78.59
2022-08-26T01:59:47.637Z,78.79
2022-08-26T02:00:47.848Z,80.04
2022-08-26T02:01:47.624Z,80.13
2022-08-26T02:02:47.596Z,80.33
2022-08-26T02:03:47.596Z,81.79
2022-08-26T02:04:48.300Z,83.34
2022-08-26T02:05:48.793Z,84.09
2022-08-26T02:06:47.560Z,84.09
2022-08-26T02:07:48.393Z,83.58
2022-08-26T02:08:47.531Z,83.68
2022-08-26T02:09:47.635Z,83.58
2022-08-26T02:10:47.543Z,83.34
2022-08-26T02:11:55.588Z,83.58
2022-08-26T02:12:47.497Z,84.19
2022-08-26T02:13:47.504Z,84.35
2022-08-26T02:14:47.526Z,84.45
2022-08-26T02:15:47.515Z,85.36
2022-08-26T02:16:47.519Z,84.55
2022-08-26T02:17:47.455Z,83.50
2022-08-26T02:18:47.586Z,84.41
2022-08-26T02:19:47.450Z,85.05
2022-08-26T02:20:47.455Z,84.85
2022-08-26T02:21:51.011Z,85.56
2022-08-26T02:22:47.466Z,85.46
2022-08-26T02:23:47.362Z,85.76
2022-08-26T02:24:47.433Z,85.56
2022-08-26T02:25:48.224Z,85.56
2022-08-26T02:26:47.369Z,85.05
2022-08-26T02:27:47.354Z,84.85
2022-08-26T02:28:47.347Z,84.95
2022-08-26T02:29:48.348Z,84.75
2022-08-26T02:30:47.326Z,85.16
2022-08-26T02:31:47.339Z,85.36
2022-08-26T02:45:09.845Z,86.83
2022-08-26T02:46:09.885Z,87.64
2022-08-26T02:47:09.892Z,87.64
2022-08-26T02:48:10.191Z,88.75
2022-08-26T02:49:09.862Z,88.81
2022-08-26T02:50:09.913Z,88.10
2022-08-26T02:51:09.838Z,88.10
2022-08-26T02:52:09.804Z,88.01
2022-08-26T02:53:09.950Z,87.81
2022-08-26T02:54:09.771Z,87.90
2022-08-26T02:55:09.787Z,88.10
2022-08-26T02:56:09.741Z,87.90
2022-08-26T02:57:09.770Z,88.81
2022-08-26T02:58:09.719Z,88.77
2022-08-26T02:59:09.733Z,88.21
2022-08-26T03:00:09.749Z,88.01
2022-08-26T03:01:09.753Z,87.46
2022-08-26T03:02:10.981Z,86.85
2022-08-26T03:03:10.914Z,86.55
2022-08-26T03:04:11.726Z,86.35
2022-08-26T03:05:10.912Z,85.74
2022-08-26T03:06:10.864Z,85.50
2022-08-26T03:07:10.848Z,86.41
2022-08-26T03:08:10.773Z,86.30
2022-08-26T03:09:11.633Z,87.01
2022-08-26T03:10:10.806Z,86.91
2022-08-26T03:11:10.798Z,86.91
2022-08-26T03:12:10.797Z,87.96
2022-08-26T03:13:10.878Z,87.92
2022-08-26T03:14:10.790Z,87.32
2022-08-26T03:15:16.515Z,86.91
2022-08-26T03:16:11.805Z,87.52
2022-08-26T03:17:10.737Z,87.72
2022-08-26T03:18:10.788Z,87.86
2022-08-26T03:19:10.725Z,88.17
2022-08-26T03:20:10.754Z,88.26
2022-08-26T03:21:10.699Z,87.66
2022-08-26T03:22:10.693Z,87.46
2022-08-26T03:23:10.759Z,87.36
2022-08-26T03:24:10.678Z,87.46
2022-08-26T03:25:10.754Z,86.65
2022-08-26T03:26:10.952Z,87.56
2022-08-26T03:27:10.665Z,87.92
2022-08-26T03:28:10.600Z,87.41
2022-08-26T03:29:10.601Z,87.32
2022-08-26T03:30:11.848Z,87.12
2022-08-26T03:31:10.703Z,87.21
2022-08-26T03:32:13.175Z,87.32
2022-08-26T03:33:10.568Z,86.67
2022-08-26T03:34:11.360Z,85.80
2022-08-26T03:35:10.601Z,85.66
2022-08-26T03:36:10.527Z,84.35
2022-08-26T03:37:10.533Z,84.05
2022-08-26T03:38:10.535Z,83.84
2022-08-26T03:39:10.488Z,83.34
2022-08-26T03:40:10.632Z,83.00
2022-08-26T03:41:10.512Z,82.39
2022-08-26T03:42:10.718Z,82.39
2022-08-26T03:43:10.633Z,81.99
2022-08-26T03:44:10.445Z,81.89
2022-08-26T03:45:10.473Z,81.99
2022-08-26T03:46:10.452Z,82.09
2022-08-26T03:47:10.425Z,82.29
2022-08-26T03:48:10.438Z,82.33
2022-08-26T03:49:10.431Z,82.23
2022-08-26T03:50:10.413Z,82.53
2022-08-26T03:51:10.361Z,83.07
2022-08-26T03:52:10.390Z,83.07
2022-08-26T03:53:12.899Z,84.12
2022-08-26T03:54:10.390Z,85.44
2022-08-26T03:55:10.969Z,85.88
2022-08-26T03:56:10.321Z,85.78
2022-08-26T03:57:10.327Z,85.28
2022-08-26T03:58:10.316Z,84.67
2022-08-26T03:59:10.317Z,85.68
2022-08-26T04:00:10.382Z,86.29
2022-08-26T04:01:10.280Z,86.22
2022-08-26T04:02:11.651Z,86.43
2022-08-26T04:03:10.506Z,86.73
2022-08-26T04:04:10.281Z,87.30
2022-08-26T04:05:11.267Z,87.70
2022-08-26T04:06:10.209Z,88.10
2022-08-26T04:07:10.312Z,88.21
2022-08-26T04:08:10.243Z,88.65
2022-08-26T04:09:10.276Z,89.26
2022-08-26T04:10:10.224Z,88.65
2022-08-26T04:11:10.341Z,88.35
2022-08-26T04:12:10.154Z,88.09
2022-08-26T04:13:10.267Z,88.04
2022-08-26T04:14:11.150Z,88.39
2022-08-26T04:15:10.593Z,88.85
2022-08-26T04:16:10.374Z,89.16
2022-08-26T04:17:10.154Z,88.35
2022-08-26T04:18:10.271Z,89.26
2022-08-26T04:19:10.108Z,89.66
2022-08-26T04:20:10.122Z,89.87
2022-08-26T04:21:10.104Z,89.66
2022-08-26T04:22:10.072Z,89.36
2022-08-26T04:23:10.072Z,88.55
2022-08-26T04:24:12.022Z,88.10
2022-08-26T04:25:11.265Z,87.90
2022-08-26T04:26:10.031Z,87.50
2022-08-26T04:27:10.023Z,86.90
2022-08-26T04:28:10.044Z,87.10
2022-08-26T04:29:11.023Z,87.60
2022-08-26T04:30:10.677Z,87.19
2022-08-26T04:31:10.036Z,87.40
2022-08-26T04:32:09.933Z,86.95
2022-08-26T04:33:13.294Z,85.17
2022-08-26T04:34:11.077Z,84.53
2022-08-26T04:35:10.009Z,84.63
2022-08-26T04:36:09.901Z,84.33
2022-08-26T04:37:10.005Z,84.03
2022-08-26T04:38:09.897Z,83.92
2022-08-26T04:39:09.884Z,83.42
2022-08-26T04:40:09.941Z,84.03
2022-08-26T04:41:15.541Z,83.42
2022-08-26T04:42:09.900Z,83.42
2022-08-26T04:43:09.890Z,83.82
2022-08-26T04:44:09.885Z,84.17
2022-08-26T04:45:10.221Z,85.48
2022-08-26T04:46:10.193Z,85.99
2022-08-26T04:47:09.811Z,86.93
2022-08-26T04:48:10.140Z,87.58
2022-08-26T04:49:09.809Z,87.58
2022-08-26T04:50:10.973Z,88.15
2022-08-26T04:51:10.022Z,88.19
2022-08-26T04:52:09.749Z,89.00
2022-08-26T04:53:09.890Z,88.59
2022-08-26T04:54:09.725Z,88.39
2022-08-26T04:55:09.747Z,88.15
2022-08-26T04:56:09.725Z,87.95
2022-08-26T04:57:09.703Z,87.44
2022-08-26T04:58:10.436Z,87.54
2022-08-26T04:59:16.853Z,87.44
2022-08-26T05:00:10.733Z,87.44
2022-08-26T05:01:09.691Z,87.70
2022-08-26T05:02:09.738Z,87.50
2022-08-26T05:03:10.273Z,87.30
2022-08-26T05:04:09.739Z,87.10
2022-08-26T05:05:10.589Z,87.30
2022-08-26T05:06:09.635Z,87.40
2022-08-26T05:07:09.738Z,87.30
2022-08-26T05:08:09.612Z,86.99
2022-08-26T05:09:09.564Z,86.95
2022-08-26T05:10:09.562Z,87.10
2022-08-26T05:11:09.619Z,86.75
2022-08-26T05:12:09.660Z,86.45
2022-08-26T05:13:10.961Z,86.55
2022-08-26T05:14:09.568Z,86.25
2022-08-26T05:15:09.567Z,86.04
2022-08-26T05:16:09.801Z,85.70
2022-08-26T05:17:09.523Z,84.89
2022-08-26T05:18:10.619Z,84.69
2022-08-26T05:19:09.577Z,85.64
2022-08-26T05:20:09.476Z,85.94
2022-08-26T05:21:09.635Z,86.25
2022-08-26T05:22:09.495Z,86.35
2022-08-26T05:23:09.671Z,86.65
2022-08-26T05:24:09.450Z,87.26
2022-08-26T05:25:09.476Z,87.26
2022-08-26T05:26:09.468Z,87.52
2022-08-26T05:27:11.740Z,87.62
2022-08-26T05:28:09.405Z,86.91
2022-08-26T05:29:09.421Z,85.60
2022-08-26T05:30:09.476Z,84.19
2022-08-26T05:31:09.459Z,83.34
2022-08-26T05:32:09.386Z,83.07
2022-08-26T05:33:09.557Z,82.64
2022-08-26T05:34:09.358Z,82.13
2022-08-26T05:35:09.422Z,82.13
2022-08-26T05:36:09.381Z,81.82
2022-08-26T05:37:09.976Z,82.09
2022-08-26T05:38:12.425Z,81.93
2022-08-26T05:39:10.680Z,81.79
2022-08-26T05:40:09.307Z,81.59
2022-08-26T05:41:09.312Z,81.48
2022-08-26T05:42:09.427Z,81.28
2022-08-26T05:43:09.417Z,81.24
2022-08-26T05:44:09.353Z,80.64
2022-08-26T05:45:10.156Z,80.74
2022-08-26T05:46:09.397Z,81.04
2022-08-26T05:47:09.204Z,80.74
2022-08-26T05:48:09.188Z,80.40
2022-08-26T05:49:12.248Z,81.95
2022-08-26T05:50:09.212Z,82.15
2022-08-26T05:51:10.264Z,81.85
2022-08-26T05:52:09.145Z,81.95
2022-08-26T05:53:09.517Z,82.15
2022-08-26T05:54:10.469Z,81.91
2022-08-26T05:55:09.155Z,82.11
2022-08-26T05:56:09.163Z,82.25
2022-08-26T05:57:09.088Z,82.15
2022-08-26T05:58:09.084Z,82.15
2022-08-26T05:59:11.672Z,82.35
2022-08-26T06:00:09.226Z,82.56
2022-08-26T06:01:09.055Z,82.42
2022-08-26T06:02:09.033Z,82.31
2022-08-26T06:03:09.320Z,81.91
2022-08-26T06:04:09.026Z,82.01
2022-08-26T06:05:09.038Z,81.91
2022-08-26T06:06:09.573Z,81.98
2022-08-26T06:07:11.574Z,81.67
2022-08-26T06:08:08.951Z,81.98
2022-08-26T06:09:10.851Z,81.47
2022-08-26T06:10:31.035Z,81.53
2022-08-26T06:11:18.416Z,81.43
2022-08-26T06:12:08.928Z,80.73
2022-08-26T06:13:11.600Z,81.13
2022-08-26T06:14:09.524Z,80.83
2022-08-26T06:15:08.983Z,80.89
2022-08-26T06:16:08.985Z,80.39
2022-08-26T06:17:09.540Z,80.08
2022-08-26T06:18:08.922Z,80.45
2022-08-26T06:19:10.192Z,80.75
2022-08-26T06:20:08.948Z,81.15
2022-08-26T06:21:08.955Z,80.69
2022-08-26T06:22:08.841Z,80.89
2022-08-26T06:23:09.115Z,80.85
2022-08-26T06:24:08.829Z,80.75
2022-08-26T06:25:08.836Z,80.55
2022-08-26T06:26:09.319Z,80.45
2022-08-26T06:27:08.738Z,81.05
2022-08-26T06:28:08.782Z,80.75
2022-08-26T06:29:08.833Z,80.31
2022-08-26T06:30:08.717Z,80.71
2022-08-26T06:31:09.218Z,80.07
2022-08-26T06:32:08.902Z,78.36
2022-08-26T06:33:09.743Z,79.37
2022-08-26T06:34:10.936Z,80.04
2022-08-26T06:35:12.143Z,79.93
2022-08-26T06:36:08.728Z,79.63
2022-08-26T06:37:08.726Z,79.39
2022-08-26T06:38:08.670Z,78.59
2022-08-26T06:39:08.672Z,78.39
2022-08-26T06:40:08.772Z,79.39
2022-08-26T06:41:08.655Z,78.69
2022-08-26T06:42:41.286Z,78.55
2022-08-26T06:43:08.859Z,78.96
2022-08-26T06:44:08.714Z,78.02
2022-08-26T06:45:08.615Z,77.37
2022-08-26T06:46:08.771Z,76.78
2022-08-26T06:47:08.585Z,76.47
2022-08-26T06:48:08.580Z,76.78
2022-08-26T06:49:08.662Z,76.34
2022-08-26T06:50:08.499Z,76.04
2022-08-26T06:51:09.519Z,76.04
2022-08-26T06:52:08.512Z,75.90
2022-08-26T06:53:08.669Z,75.70
2022-08-26T06:54:08.607Z,75.60
2022-08-26T06:55:08.510Z,75.87
2022-08-26T06:56:08.480Z,75.67
2022-08-26T06:57:08.510Z,75.40
2022-08-26T06:58:08.441Z,76.20
2022-08-26T06:59:08.438Z,75.40
2022-08-26T07:00:08.436Z,75.90
2022-08-26T07:01:11.479Z,75.90
2022-08-26T07:02:09.546Z,76.10
2022-08-26T07:03:08.694Z,75.87
2022-08-26T07:04:10.641Z,75.56
2022-08-26T07:05:08.434Z,75.83
2022-08-26T07:06:08.384Z,75.02
2022-08-26T07:07:09.736Z,74.29
2022-08-26T07:08:08.440Z,74.16
2022-08-26T07:09:09.769Z,73.56
2022-08-26T07:10:08.409Z,73.25
2022-08-26T07:11:08.342Z,73.36
2022-08-26T07:12:08.308Z,72.56
2022-08-26T07:13:08.391Z,71.92
2022-08-26T07:14:08.303Z,72.13
2022-08-26T07:15:09.119Z,71.83
2022-08-26T07:16:08.345Z,71.92
2022-08-26T07:17:12.160Z,72.32
2022-08-26T07:18:10.367Z,72.32
2022-08-26T07:19:10.796Z,72.42
2022-08-26T07:20:08.248Z,72.42
2022-08-26T07:21:08.243Z,71.69
2022-08-26T07:22:09.185Z,72.19
2022-08-26T07:23:10.004Z,71.79
2022-08-26T07:24:08.497Z,72.05
2022-08-26T07:25:08.164Z,71.26
2022-08-26T07:26:08.472Z,71.15
2022-08-26T07:27:08.714Z,71.26
2022-08-26T07:28:08.481Z,71.26
2022-08-26T07:29:08.159Z,70.56
2022-08-26T07:30:19.107Z,70.76
2022-08-26T07:31:08.211Z,71.36
2022-08-26T07:32:08.139Z,71.36
2022-08-26T07:33:08.402Z,71.12
2022-08-26T07:34:08.135Z,71.12
2022-08-26T07:35:08.090Z,70.72
2022-08-26T07:36:08.092Z,69.62
2022-08-26T07:37:08.828Z,70.12
2022-08-26T07:38:09.003Z,69.53
2022-08-26T07:39:08.052Z,69.69
2022-08-26T07:40:08.108Z,69.99
2022-08-26T07:41:08.043Z,69.96
2022-08-26T07:42:08.640Z,69.46
2022-08-26T07:43:08.149Z,69.06
2022-08-26T07:44:08.506Z,69.46
2022-08-26T07:45:08.234Z,69.66
2022-08-26T07:46:07.985Z,69.66
2022-08-26T07:47:25.508Z,69.46
2022-08-26T07:48:09.951Z,69.56
2022-08-26T07:49:08.015Z,68.96
2022-08-26T07:50:07.944Z,68.93
2022-08-26T07:51:07.941Z,68.76
2022-08-26T07:52:08.241Z,69.46
2022-08-26T07:53:08.009Z,69.02
2022-08-26T07:54:08.028Z,68.73
2022-08-26T07:55:07.908Z,68.83
2022-08-26T07:56:07.911Z,68.73
2022-08-26T07:57:09.416Z,68.63
2022-08-26T07:58:07.879Z,68.20
2022-08-26T07:59:13.639Z,68.60
2022-08-26T08:00:08.837Z,68.33
2022-08-26T08:01:08.002Z,68.73
2022-08-26T08:02:07.836Z,68.73
2022-08-26T08:03:08.019Z,69.32
2022-08-26T08:04:08.134Z,68.63
2022-08-26T08:05:07.820Z,68.73
2022-08-26T08:06:07.813Z,68.90
2022-08-26T08:07:11.542Z,68.60
2022-08-26T08:08:26.648Z,68.53
2022-08-26T08:09:08.812Z,68.93
2022-08-26T08:10:11.516Z,68.79
2022-08-26T08:11:09.973Z,68.56
2022-08-26T08:12:07.711Z,67.77
2022-08-26T08:13:07.886Z,67.77
2022-08-26T08:14:08.430Z,67.77
2022-08-26T08:15:07.751Z,67.27
2022-08-26T08:16:07.700Z,66.87
2022-08-26T08:17:07.894Z,66.87
2022-08-26T08:18:15.328Z,66.64
2022-08-26T08:19:08.661Z,66.84
2022-08-26T08:20:07.639Z,66.84
2022-08-26T08:21:24.154Z,66.81
2022-08-26T08:22:17.480Z,65.94
2022-08-26T08:23:08.594Z,65.91
2022-08-26T08:24:07.616Z,65.81
2022-08-26T08:25:08.178Z,65.91
2022-08-26T08:26:08.330Z,65.81
2022-08-26T08:27:07.631Z,65.31
2022-08-26T08:28:07.759Z,65.39
2022-08-26T08:29:08.208Z,65.39
2022-08-26T08:30:07.544Z,65.48
2022-08-26T08:31:07.611Z,65.45
2022-08-26T08:32:11.438Z,64.33
2022-08-26T08:33:07.500Z,64.23
2022-08-26T08:34:07.481Z,63.64
2022-08-26T08:35:11.082Z,63.13
2022-08-26T08:36:09.287Z,63.51
2022-08-26T08:37:10.650Z,63.31
2022-08-26T08:39:17.646Z,62.18
2022-08-26T08:40:17.691Z,61.76
2022-08-26T08:41:17.621Z,61.76
2022-08-26T08:42:18.754Z,61.36
2022-08-26T08:43:18.779Z,61.53
2022-08-26T08:44:18.769Z,61.73
2022-08-26T08:45:18.731Z,61.04
2022-08-26T08:46:18.773Z,60.91
2022-08-26T08:47:18.793Z,60.11
2022-08-26T08:48:18.795Z,60.91
2022-08-26T08:49:18.822Z,60.58
2022-08-26T08:50:18.978Z,59.79
2022-08-26T08:51:18.734Z,59.00
2022-08-26T08:52:18.680Z,58.87
2022-08-26T08:53:18.653Z,58.18
2022-08-26T08:54:19.405Z,58.07
2022-08-26T08:55:18.832Z,58.25
2022-08-26T08:57:44.459Z,57.65
2022-08-26T08:57:46.515Z,57.68
2022-08-26T08:58:46.566Z,58.67
2022-08-26T08:59:48.550Z,57.98
2022-08-26T09:00:46.839Z,57.95
2022-08-26T09:01:46.600Z,57.95
2022-08-26T09:03:02.642Z,57.53
2022-08-26T09:03:47.413Z,57.65
2022-08-26T09:04:46.352Z,58.25
2022-08-26T09:05:48.881Z,58.25
2022-08-26T09:08:19.928Z,57.75
2022-08-26T09:08:21.619Z,57.13
2022-08-26T09:09:22.374Z,56.24
2022-08-26T09:10:21.587Z,55.92
2022-08-26T09:11:35.850Z,56.02
2022-08-26T09:12:21.591Z,56.02
2022-08-26T09:13:26.374Z,56.41
2022-08-26T09:14:21.514Z,56.02
2022-08-26T09:15:21.562Z,56.38
2022-08-26T09:16:21.601Z,56.29
2022-08-26T09:17:21.536Z,55.40
2022-08-26T09:18:21.466Z,55.18
2022-08-26T09:19:21.549Z,55.24
2022-08-26T09:20:21.445Z,55.02
2022-08-26T09:21:21.439Z,54.53
2022-08-26T09:23:22.479Z,54.53
2022-08-26T09:24:28.844Z,54.60
2022-08-26T09:25:23.091Z,53.02
2022-08-26T09:26:23.543Z,52.83
2022-08-26T09:27:22.450Z,53.02
2022-08-26T09:28:21.418Z,52.90
2022-08-26T09:29:22.385Z,52.70
2022-08-26T09:30:21.622Z,51.99
2022-08-26T09:31:21.404Z,51.62
2022-08-26T09:32:21.454Z,51.79
2022-08-26T09:33:21.365Z,51.99
2022-08-26T09:34:21.387Z,50.71
2022-08-26T09:35:21.363Z,51.40
2022-08-26T09:36:22.136Z,51.47
2022-08-26T09:37:21.311Z,51.20
2022-08-26T09:38:21.342Z,50.90
2022-08-26T09:39:21.316Z,50.59
2022-08-26T09:40:21.701Z,51.18
2022-08-26T09:41:27.670Z,50.59
2022-08-26T09:42:21.248Z,51.05
2022-08-26T09:43:23.027Z,49.77
2022-08-26T09:44:24.936Z,50.07
2022-08-26T09:45:22.446Z,49.87
2022-08-26T09:46:21.507Z,50.04
2022-08-26T09:47:21.234Z,50.24
2022-08-26T09:48:21.162Z,50.66
2022-08-26T09:49:21.680Z,50.44
2022-08-26T09:50:21.206Z,50.63
2022-08-26T09:51:21.150Z,50.34
2022-08-26T09:52:21.222Z,49.92
2022-08-26T09:53:25.190Z,48.62
2022-08-26T09:54:22.494Z,48.52
2022-08-26T09:55:22.334Z,49.21
2022-08-26T09:56:21.118Z,48.84
2022-08-26T09:57:21.187Z,49.06
2022-08-26T09:58:21.110Z,49.28
2022-08-26T09:59:21.131Z,50.88
2022-08-26T10:00:21.088Z,50.76
2022-08-26T10:01:21.282Z,50.46
2022-08-26T10:02:23.819Z,50.46
2022-08-26T10:03:21.115Z,50.04
2022-08-26T10:04:21.088Z,49.46
2022-08-26T10:05:21.045Z,50.02
2022-08-26T10:06:50.746Z,49.33
2022-08-26T10:07:22.260Z,48.84
2022-08-26T10:08:21.467Z,48.82
2022-08-26T10:09:22.061Z,48.50
2022-08-26T10:11:58.061Z,49.68
2022-08-26T10:13:51.229Z,47.81
2022-08-26T10:14:21.648Z,49.19
2022-08-26T10:15:00.971Z,48.11
2022-08-26T10:15:59.545Z,48.21
2022-08-26T10:16:59.864Z,48.11
2022-08-26T10:18:00.248Z,48.03
2022-08-26T10:19:00.312Z,47.44
2022-08-26T10:20:02.966Z,48.03
2022-08-26T10:20:59.134Z,47.93
2022-08-26T10:22:00.172Z,47.22
2022-08-26T10:22:59.116Z,46.63
2022-08-26T10:23:59.116Z,46.71
2022-08-26T10:24:59.102Z,47.00
2022-08-26T10:26:00.058Z,46.30
2022-08-26T10:27:00.353Z,46.61
2022-08-26T10:27:59.105Z,46.00
2022-08-26T10:28:59.075Z,45.24
2022-08-26T10:29:59.089Z,45.34
2022-08-26T10:30:59.092Z,45.43
2022-08-26T10:33:57.989Z,45.24
2022-08-26T10:34:00.816Z,42.98
2022-08-26T10:34:59.639Z,42.41
2022-08-26T10:35:59.649Z,43.51
2022-08-26T10:38:21.390Z,45.40
2022-08-26T10:39:41.572Z,45.45
2022-08-26T10:40:42.263Z,45.36
2022-08-26T10:41:42.306Z,45.26
2022-08-26T10:42:44.166Z,45.04
2022-08-26T10:43:42.877Z,44.65
2022-08-26T10:44:46.331Z,43.05
2022-08-26T10:45:44.925Z,43.35
2022-08-26T10:46:42.580Z,42.96
2022-08-26T10:47:43.354Z,43.13
2022-08-26T10:48:42.539Z,42.62
2022-08-26T10:49:43.389Z,42.62
2022-08-26T10:50:47.462Z,41.33
2022-08-26T10:51:42.678Z,41.23
2022-08-26T10:52:43.268Z,41.15
2022-08-26T10:53:51.483Z,41.82
2022-08-26T10:54:43.589Z,40.55
2022-08-26T10:55:42.492Z,40.94
2022-08-26T10:56:43.458Z,40.64
2022-08-26T10:57:42.448Z,40.64
2022-08-26T10:58:42.578Z,40.62
2022-08-26T10:59:42.419Z,40.43
2022-08-26T11:00:43.960Z,40.50
2022-08-26T11:01:50.095Z,39.51
2022-08-26T11:02:47.159Z,38.92
2022-08-26T11:03:43.446Z,38.94
2022-08-26T11:04:46.976Z,38.84
2022-08-26T11:06:04.286Z,39.51
2022-08-26T11:06:42.358Z,39.41
2022-08-26T11:07:42.464Z,39.12
2022-08-26T11:08:42.978Z,40.92
2022-08-26T11:09:43.250Z,40.55
2022-08-26T11:10:43.729Z,41.03
2022-08-26T11:11:42.798Z,40.03
2022-08-26T11:12:43.768Z,37.96
2022-08-26T11:13:46.973Z,37.65
2022-08-26T11:14:53.214Z,37.85
2022-08-26T11:15:42.325Z,37.26
2022-08-26T11:16:43.425Z,37.75
2022-08-26T11:17:47.170Z,37.47
2022-08-26T11:18:42.362Z,37.67
2022-08-26T11:19:59.549Z,37.77
2022-08-26T11:20:44.335Z,37.39
2022-08-26T11:21:42.543Z,37.49
2022-08-26T11:22:47.702Z,38.28
2022-08-26T11:23:45.348Z,37.49
2022-08-26T11:24:43.277Z,37.79
2022-08-26T11:25:43.260Z,37.29
2022-08-26T11:26:56.004Z,37.88
2022-08-26T11:27:44.037Z,37.29
2022-08-26T11:28:44.084Z,36.90
2022-08-26T11:29:42.237Z,37.90
2022-08-26T11:30:42.485Z,38.70
2022-08-26T11:31:42.229Z,39.19
2022-08-26T11:32:42.193Z,38.68
2022-08-26T11:33:42.180Z,38.49
2022-08-26T11:34:42.493Z,38.49
2022-08-26T11:35:47.635Z,37.51
2022-08-26T11:36:42.789Z,37.41
2022-08-26T11:38:50.703Z,38.10
2022-08-26T11:39:54.705Z,38.20
2022-08-26T11:40:53.616Z,36.80
2022-08-26T11:41:53.030Z,37.61
2022-08-26T11:42:51.788Z,37.61
2022-08-26T11:43:52.424Z,38.00
2022-08-26T11:44:51.718Z,37.12
2022-08-26T11:45:51.738Z,37.61
2022-08-26T11:46:51.662Z,36.92
2022-08-26T11:47:52.074Z,37.92
2022-08-26T11:48:51.746Z,38.10
2022-08-26T11:49:51.655Z,37.73
2022-08-26T11:50:51.655Z,36.84
2022-08-26T11:51:52.590Z,38.21
2022-08-26T11:52:51.705Z,37.15
2022-08-26T11:53:51.622Z,37.13
2022-08-26T11:54:51.697Z,38.21
2022-08-26T11:55:52.389Z,37.04
2022-08-26T11:56:51.586Z,37.94
2022-08-26T11:57:51.584Z,37.73
2022-08-26T11:58:51.596Z,37.82
2022-08-26T11:59:51.559Z,37.65
2022-08-26T12:00:51.529Z,37.94
2022-08-26T12:01:51.578Z,38.12
2022-08-26T12:02:52.499Z,38.41
2022-08-26T12:03:52.239Z,38.41
2022-08-26T12:04:51.482Z,38.00
2022-08-26T12:05:51.485Z,37.41
2022-08-26T12:06:51.494Z,37.81
2022-08-26T12:07:51.476Z,37.41
2022-08-26T12:08:51.607Z,37.51
2022-08-26T12:09:51.454Z,37.59
2022-08-26T12:10:51.462Z,37.79
2022-08-26T12:11:51.466Z,38.08
2022-08-26T12:12:51.415Z,37.88
2022-08-26T12:13:51.376Z,36.80
2022-08-26T12:14:51.469Z,36.72
2022-08-26T12:15:51.396Z,37.41
2022-08-26T12:16:51.434Z,37.71
2022-08-26T12:17:54.329Z,37.90
2022-08-26T12:18:52.378Z,37.71
2022-08-26T12:19:51.395Z,38.67
2022-08-26T12:20:51.381Z,38.78
2022-08-26T12:21:51.422Z,38.98
2022-08-26T12:22:51.367Z,38.98
2022-08-26T12:23:52.269Z,39.00
2022-08-26T12:24:51.306Z,39.09
2022-08-26T12:25:51.311Z,39.59
2022-08-26T12:26:51.357Z,39.51
2022-08-26T12:27:53.703Z,39.51
2022-08-26T12:28:52.280Z,40.78
2022-08-26T12:29:51.276Z,39.80
2022-08-26T12:30:51.401Z,40.51
2022-08-26T12:31:51.278Z,41.00
2022-08-26T12:32:57.810Z,40.78
2022-08-26T12:33:52.287Z,41.49
2022-08-26T12:34:51.219Z,41.29
2022-08-26T12:35:54.747Z,41.19
2022-08-26T12:36:53.376Z,42.18
2022-08-26T12:37:51.813Z,41.58
2022-08-26T12:38:51.216Z,42.19
2022-08-26T12:39:51.300Z,42.71
2022-08-26T12:40:51.224Z,43.00
2022-08-26T12:41:51.170Z,41.51
2022-08-26T12:42:51.273Z,41.21
2022-08-26T12:43:52.201Z,41.21
2022-08-26T12:44:53.471Z,41.51
2022-08-26T12:45:51.219Z,41.11
2022-08-26T12:46:52.110Z,41.29
2022-08-26T12:47:51.186Z,41.68
2022-08-26T12:48:51.341Z,41.39
2022-08-26T12:49:51.157Z,41.19
2022-08-26T12:50:51.139Z,41.17
2022-08-26T12:51:51.123Z,40.98
2022-08-26T12:52:51.087Z,40.95
2022-08-26T12:53:51.119Z,40.95
2022-08-26T12:54:56.086Z,40.64
2022-08-26T12:55:53.094Z,40.45
2022-08-26T12:56:51.964Z,40.43
2022-08-26T12:57:51.084Z,40.25
2022-08-26T12:58:51.158Z,40.62
2022-08-26T12:59:51.002Z,40.41
2022-08-26T13:00:51.915Z,40.31
2022-08-26T13:01:51.108Z,39.62
2022-08-26T13:02:51.001Z,39.12
2022-08-26T13:03:50.980Z,39.04
2022-08-26T13:04:50.961Z,39.04
2022-08-26T13:05:50.977Z,38.84
2022-08-26T13:06:50.945Z,40.60
2022-08-26T13:07:51.805Z,39.41
2022-08-26T13:08:50.924Z,39.41
2022-08-26T13:09:51.671Z,40.19
2022-08-26T13:10:50.932Z,39.39
2022-08-26T13:11:51.817Z,38.71
2022-08-26T13:12:50.899Z,39.69
2022-08-26T13:13:51.129Z,38.42